createdAt,value
2023-10-06T00:01:12.327Z,14.10
2023-10-06T00:03:42.196Z,14.10
2023-10-06T00:06:14.200Z,14.10
2023-10-06T00:08:52.500Z,14.10
2023-10-06T00:11:29.809Z,14.10
2023-10-06T00:14:02.833Z,14.10
2023-10-06T00:16:36.037Z,14.10
2023-10-06T00:19:21.347Z,14.10
2023-10-06T00:22:04.056Z,13.90
2023-10-06T00:24:34.742Z,13.90
2023-10-06T00:27:02.850Z,13.90
2023-10-06T00:29:31.394Z,13.90
2023-10-06T00:32:07.872Z,14.00
2023-10-06T00:34:36.234Z,14.00
2023-10-06T00:37:04.420Z,14.00
2023-10-06T00:39:33.956Z,14.00
2023-10-06T00:42:05.649Z,14.00
2023-10-06T00:44:33.800Z,14.00
2023-10-06T00:47:07.331Z,14.00
2023-10-06T00:49:36.022Z,14.00
2023-10-06T00:52:07.694Z,13.90
2023-10-06T00:54:37.277Z,14.00
2023-10-06T00:57:10.999Z,13.90
2023-10-06T00:59:39.345Z,13.80
2023-10-06T01:02:10.262Z,13.80
2023-10-06T01:04:45.252Z,13.80
2023-10-06T01:07:16.015Z,13.80
2023-10-06T01:09:58.385Z,13.70
2023-10-06T01:12:27.316Z,13.60
2023-10-06T01:15:06.965Z,13.60
2023-10-06T01:17:35.505Z,13.60
2023-10-06T01:20:04.974Z,13.60
2023-10-06T01:22:43.087Z,13.60
2023-10-06T01:25:21.336Z,13.60
2023-10-06T01:27:51.607Z,13.50
2023-10-06T01:30:20.327Z,13.50
2023-10-06T01:32:51.934Z,13.50
2023-10-06T01:35:22.411Z,13.50
2023-10-06T01:37:58.603Z,13.50
2023-10-06T01:40:44.609Z,13.50
2023-10-06T01:43:16.441Z,13.40
2023-10-06T01:45:46.097Z,13.50
2023-10-06T01:48:24.521Z,13.60
2023-10-06T01:50:56.333Z,13.50
2023-10-06T01:53:33.912Z,13.40
2023-10-06T01:56:08.262Z,13.50
2023-10-06T01:58:38.292Z,13.50
2023-10-06T02:01:09.032Z,13.40
2023-10-06T02:03:43.302Z,13.40
2023-10-06T02:06:17.136Z,13.20
2023-10-06T02:08:50.833Z,13.40
2023-10-06T02:11:19.382Z,13.40
2023-10-06T02:13:47.525Z,13.30
2023-10-06T02:16:18.818Z,13.30
2023-10-06T02:18:46.916Z,13.30
2023-10-06T02:21:15.890Z,13.30
2023-10-06T02:23:45.316Z,13.30
2023-10-06T02:26:15.597Z,13.30
2023-10-06T02:28:49.510Z,13.20
2023-10-06T02:31:20.468Z,13.30
2023-10-06T02:33:50.495Z,13.40
2023-10-06T02:36:22.585Z,13.40
2023-10-06T02:38:51.432Z,13.30
2023-10-06T02:41:22.596Z,13.20
2023-10-06T02:43:51.493Z,13.30
2023-10-06T02:46:24.406Z,13.30
2023-10-06T02:48:52.968Z,13.30
2023-10-06T02:51:30.630Z,13.30
2023-10-06T02:54:14.664Z,13.30
2023-10-06T02:56:44.847Z,13.30
2023-10-06T02:59:22.909Z,13.50
2023-10-06T03:01:53.785Z,13.40
2023-10-06T03:04:26.391Z,13.30
2023-10-06T03:06:56.819Z,13.10
2023-10-06T03:09:37.443Z,13.40
2023-10-06T03:12:17.050Z,13.50
2023-10-06T03:14:45.405Z,13.70
2023-10-06T03:17:15.136Z,13.40
2023-10-06T03:19:44.988Z,13.30
2023-10-06T03:22:14.316Z,13.20
2023-10-06T03:24:54.282Z,13.20
2023-10-06T03:27:24.996Z,13.30
2023-10-06T03:29:56.067Z,13.20
2023-10-06T03:32:33.899Z,13.20
2023-10-06T03:35:12.953Z,13.20
2023-10-06T03:37:53.704Z,13.30
2023-10-06T03:40:24.786Z,13.20
2023-10-06T03:42:55.004Z,13.20
2023-10-06T03:45:30.312Z,13.20
2023-10-06T03:48:09.895Z,13.20
2023-10-06T03:50:44.155Z,13.10
2023-10-06T03:53:15.891Z,13.10
2023-10-06T03:55:46.196Z,13.10
2023-10-06T03:58:18.415Z,13.10
2023-10-06T04:00:50.213Z,13.10
2023-10-06T04:03:19.612Z,13.10
2023-10-06T04:05:49.869Z,13.00
2023-10-06T04:08:20.318Z,13.00
2023-10-06T04:10:49.850Z,13.00
2023-10-06T04:13:19.670Z,12.90
2023-10-06T04:15:50.313Z,12.90
2023-10-06T04:18:19.539Z,13.00
2023-10-06T04:20:47.455Z,13.00
2023-10-06T04:23:18.372Z,12.90
2023-10-06T04:25:47.669Z,13.00
2023-10-06T04:28:20.548Z,13.00
2023-10-06T04:30:49.202Z,12.90
2023-10-06T04:33:19.881Z,12.90
2023-10-06T04:35:53.860Z,13.00
2023-10-06T04:38:22.268Z,13.00
2023-10-06T04:40:50.659Z,13.00
2023-10-06T04:43:20.187Z,12.90
2023-10-06T04:45:48.887Z,13.00
2023-10-06T04:48:20.047Z,13.00
2023-10-06T04:50:51.559Z,13.00
2023-10-06T04:53:19.934Z,13.10
2023-10-06T04:55:48.247Z,13.00
2023-10-06T04:58:19.165Z,12.90
2023-10-06T05:00:54.225Z,13.00
2023-10-06T05:03:22.750Z,12.90
2023-10-06T05:05:51.868Z,12.90
2023-10-06T05:08:20.359Z,12.80
2023-10-06T05:10:48.599Z,12.80
2023-10-06T05:13:17.653Z,12.80
2023-10-06T05:15:45.884Z,12.90
2023-10-06T05:18:17.276Z,12.80
2023-10-06T05:20:47.602Z,12.80
2023-10-06T05:23:16.806Z,12.70
2023-10-06T05:25:46.970Z,12.80
2023-10-06T05:28:18.121Z,12.80
2023-10-06T05:30:46.986Z,12.80
2023-10-06T05:33:17.055Z,12.80
2023-10-06T05:35:47.616Z,12.80
2023-10-06T05:38:16.140Z,12.80
2023-10-06T05:40:45.449Z,12.80
2023-10-06T05:43:14.115Z,12.70
2023-10-06T05:45:43.043Z,12.70
2023-10-06T05:48:11.896Z,12.70
2023-10-06T05:50:42.598Z,12.70
2023-10-06T05:53:13.916Z,12.70
2023-10-06T05:55:43.655Z,12.70
2023-10-06T05:58:15.690Z,12.60
2023-10-06T06:00:52.360Z,12.60
2023-10-06T06:03:22.277Z,12.60
2023-10-06T06:05:53.583Z,12.70
2023-10-06T06:08:22.429Z,12.70
2023-10-06T06:10:50.843Z,12.70
2023-10-06T06:13:21.118Z,12.80
2023-10-06T06:15:51.153Z,12.70
2023-10-06T06:18:19.368Z,12.80
2023-10-06T06:20:47.537Z,12.90
2023-10-06T06:23:17.384Z,12.90
2023-10-06T06:25:46.631Z,12.90
2023-10-06T06:28:15.802Z,13.00
2023-10-06T06:30:44.018Z,13.00
2023-10-06T06:33:14.255Z,13.00
2023-10-06T06:35:44.041Z,13.00
2023-10-06T06:38:14.137Z,13.00
2023-10-06T06:40:44.664Z,13.10
2023-10-06T06:43:12.774Z,13.20
2023-10-06T06:45:45.134Z,13.40
2023-10-06T06:48:15.208Z,13.50
2023-10-06T06:50:44.505Z,13.70
2023-10-06T06:53:13.393Z,13.70
2023-10-06T06:55:43.876Z,13.90
2023-10-06T06:58:13.318Z,14.00
2023-10-06T07:00:42.163Z,14.20
2023-10-06T07:03:12.518Z,14.20
2023-10-06T07:05:41.139Z,14.40
2023-10-06T07:08:10.249Z,14.50
2023-10-06T07:13:11.979Z,14.80
2023-10-06T07:15:40.544Z,14.90
2023-10-06T07:18:11.589Z,15.10
2023-10-06T07:20:39.909Z,15.20
2023-10-06T07:23:08.114Z,15.50
2023-10-06T07:25:36.412Z,15.90
2023-10-06T07:30:36.724Z,16.10
2023-10-06T07:33:07.032Z,16.40
2023-10-06T07:35:41.898Z,16.60
2023-10-06T07:38:12.194Z,16.90
2023-10-06T07:40:40.919Z,17.10
2023-10-06T07:43:11.008Z,17.20
2023-10-06T07:45:40.477Z,17.30
2023-10-06T07:48:10.056Z,17.60
2023-10-06T07:50:39.175Z,17.70
2023-10-06T07:53:07.866Z,17.70
2023-10-06T07:55:36.093Z,17.80
2023-10-06T07:58:08.275Z,18.10
2023-10-06T08:00:40.313Z,18.40
2023-10-06T08:03:12.281Z,18.40
2023-10-06T08:05:41.937Z,18.20
2023-10-06T08:08:10.267Z,18.20
2023-10-06T08:10:41.694Z,18.30
2023-10-06T08:13:11.788Z,19.00
2023-10-06T08:15:46.097Z,18.50
2023-10-06T08:18:16.388Z,18.50
2023-10-06T08:20:45.333Z,18.60
2023-10-06T08:23:13.479Z,18.70
2023-10-06T08:28:13.933Z,19.00
2023-10-06T08:30:41.991Z,19.00
2023-10-06T08:33:10.752Z,19.00
2023-10-06T08:35:42.030Z,19.20
2023-10-06T08:38:10.703Z,19.30
2023-10-06T08:40:43.195Z,19.20
2023-10-06T08:43:12.522Z,19.10
2023-10-06T08:45:45.432Z,19.00
2023-10-06T08:48:16.559Z,19.20
2023-10-06T08:50:47.198Z,19.00
2023-10-06T08:53:16.557Z,19.00
2023-10-06T08:55:45.717Z,18.90
2023-10-06T08:58:15.760Z,19.00
2023-10-06T09:00:45.441Z,18.90
2023-10-06T09:03:16.063Z,18.90
2023-10-06T09:05:46.470Z,19.10
2023-10-06T09:08:16.348Z,19.20
2023-10-06T09:10:46.259Z,19.40
2023-10-06T09:13:17.891Z,19.40
2023-10-06T09:15:57.035Z,19.40
2023-10-06T09:18:28.569Z,19.50
2023-10-06T09:21:11.736Z,19.60
2023-10-06T09:23:42.138Z,19.90
2023-10-06T09:26:13.333Z,19.80
2023-10-06T09:29:02.985Z,21.40
2023-10-06T09:31:38.530Z,20.60
2023-10-06T09:34:10.204Z,20.80
2023-10-06T09:36:45.778Z,20.70
2023-10-06T09:39:18.911Z,20.90
2023-10-06T09:41:49.134Z,21.40
2023-10-06T09:46:53.530Z,21.70
2023-10-06T09:49:23.360Z,21.40
2023-10-06T09:54:23.786Z,21.20
2023-10-06T09:56:56.635Z,21.40
2023-10-06T09:59:27.547Z,21.70
2023-10-06T10:01:58.244Z,21.80
2023-10-06T10:04:31.648Z,22.00
2023-10-06T10:07:03.583Z,22.20
2023-10-06T10:09:36.125Z,21.80
2023-10-06T10:12:15.791Z,21.70
2023-10-06T10:15:00.972Z,21.50
2023-10-06T10:17:37.963Z,21.90
2023-10-06T10:20:10.922Z,21.50
2023-10-06T10:22:42.103Z,21.40
2023-10-06T10:25:24.752Z,21.40
2023-10-06T10:28:18.170Z,21.50
2023-10-06T10:30:58.957Z,21.30
2023-10-06T10:33:31.036Z,21.30
2023-10-06T10:36:21.515Z,21.30
2023-10-06T10:39:08.629Z,21.40
2023-10-06T10:41:38.684Z,21.60
2023-10-06T10:44:24.741Z,21.20
2023-10-06T10:49:34.276Z,21.20
2023-10-06T10:52:06.114Z,21.50
2023-10-06T10:54:37.772Z,21.70
2023-10-06T10:57:10.872Z,21.90
2023-10-06T11:00:14.441Z,21.70
2023-10-06T11:02:44.365Z,21.70
2023-10-06T11:05:13.202Z,21.70
2023-10-06T11:07:43.225Z,21.60
2023-10-06T11:10:15.513Z,21.70
2023-10-06T11:12:43.857Z,21.60
2023-10-06T11:15:17.837Z,21.40
2023-10-06T11:17:47.263Z,21.50
2023-10-06T11:20:17.485Z,21.70
2023-10-06T11:22:56.734Z,22.10
2023-10-06T11:25:29.530Z,22.00
2023-10-06T11:27:59.006Z,22.00
2023-10-06T11:30:30.270Z,22.20
2023-10-06T11:32:59.155Z,22.50
2023-10-06T11:35:27.607Z,22.70
2023-10-06T11:37:56.509Z,22.50
2023-10-06T11:40:26.223Z,22.60
2023-10-06T11:42:55.035Z,22.80
2023-10-06T11:45:28.903Z,22.80
2023-10-06T11:47:57.684Z,23.10
2023-10-06T11:50:27.763Z,22.80
2023-10-06T11:52:56.601Z,22.80
2023-10-06T11:55:32.493Z,23.20
2023-10-06T11:58:02.324Z,23.30
2023-10-06T12:00:41.482Z,23.70
2023-10-06T12:03:12.896Z,24.00
2023-10-06T12:05:44.837Z,23.90
2023-10-06T12:08:15.608Z,24.10
2023-10-06T12:10:52.904Z,23.90
2023-10-06T12:13:21.300Z,24.60
2023-10-06T12:15:49.579Z,24.30
2023-10-06T12:18:18.235Z,24.00
2023-10-06T12:20:46.724Z,24.40
2023-10-06T12:23:14.902Z,25.00
2023-10-06T12:25:43.035Z,25.10
2023-10-06T12:28:17.628Z,24.40
2023-10-06T12:30:46.128Z,24.40
2023-10-06T12:33:15.240Z,24.40
2023-10-06T12:35:43.473Z,24.80
2023-10-06T12:38:11.616Z,25.40
2023-10-06T12:40:40.351Z,25.90
2023-10-06T12:43:09.220Z,26.40
2023-10-06T12:45:39.777Z,26.60
2023-10-06T12:48:09.172Z,26.50
2023-10-06T12:50:42.092Z,26.60
2023-10-06T12:53:11.515Z,26.40
2023-10-06T12:55:42.999Z,27.00
2023-10-06T12:58:15.949Z,27.20
2023-10-06T13:00:45.697Z,27.60
2023-10-06T13:03:18.173Z,27.50
2023-10-06T13:05:47.866Z,27.50
2023-10-06T13:08:18.341Z,27.80
2023-10-06T13:10:48.219Z,27.90
2023-10-06T13:13:18.339Z,27.50
2023-10-06T13:15:48.124Z,27.80
2023-10-06T13:18:18.432Z,27.40
2023-10-06T13:20:47.525Z,27.60
2023-10-06T13:23:15.871Z,27.60
2023-10-06T13:25:47.254Z,28.00
2023-10-06T13:28:19.336Z,27.90
2023-10-06T13:30:49.005Z,28.40
2023-10-06T13:33:17.344Z,28.40
2023-10-06T13:35:46.003Z,28.40
2023-10-06T13:38:14.572Z,27.50
2023-10-06T13:40:46.086Z,27.40
2023-10-06T13:43:14.648Z,28.40
2023-10-06T13:45:46.457Z,27.70
2023-10-06T13:48:17.608Z,26.90
2023-10-06T13:50:47.185Z,26.90
2023-10-06T13:53:16.455Z,26.40
2023-10-06T13:55:46.049Z,25.90
2023-10-06T13:58:14.648Z,26.20
2023-10-06T14:00:43.583Z,26.80
2023-10-06T14:03:15.168Z,26.30
2023-10-06T14:05:50.934Z,26.80
2023-10-06T14:08:19.863Z,26.60
2023-10-06T14:10:48.270Z,26.50
2023-10-06T14:13:22.400Z,26.30
2023-10-06T14:15:55.836Z,26.50
2023-10-06T14:18:26.615Z,26.50
2023-10-06T14:20:58.836Z,26.60
2023-10-06T14:23:31.458Z,26.60
2023-10-06T14:26:01.544Z,26.60
2023-10-06T14:28:30.927Z,25.70
2023-10-06T14:31:08.799Z,25.80
2023-10-06T14:33:41.061Z,26.10
2023-10-06T14:36:22.202Z,25.60
2023-10-06T14:39:07.701Z,25.60
2023-10-06T14:41:53.466Z,25.30
2023-10-06T14:44:39.130Z,25.20
2023-10-06T14:47:08.996Z,24.70
2023-10-06T14:49:41.715Z,25.10
2023-10-06T14:52:11.372Z,25.50
2023-10-06T14:54:39.956Z,25.30
2023-10-06T14:57:08.255Z,24.80
2023-10-06T14:59:36.515Z,24.60
2023-10-06T15:02:08.427Z,24.90
2023-10-06T15:04:36.979Z,24.80
2023-10-06T15:07:06.174Z,24.40
2023-10-06T15:09:37.248Z,24.00
2023-10-06T15:12:07.863Z,24.10
2023-10-06T15:14:37.536Z,23.60
2023-10-06T15:17:10.869Z,23.90
2023-10-06T15:19:39.326Z,24.00
2023-10-06T15:22:10.144Z,23.90
2023-10-06T15:24:41.316Z,23.60
2023-10-06T15:27:09.707Z,23.70
2023-10-06T15:29:38.761Z,23.90
2023-10-06T15:32:07.304Z,24.10
2023-10-06T15:34:36.635Z,24.20
2023-10-06T15:37:05.955Z,23.80
2023-10-06T15:39:34.354Z,23.90
2023-10-06T15:42:05.512Z,23.80
2023-10-06T15:44:34.164Z,23.60
2023-10-06T15:47:03.224Z,23.80
2023-10-06T15:49:31.519Z,23.80
2023-10-06T15:51:59.685Z,23.30
2023-10-06T15:54:29.281Z,23.60
2023-10-06T15:56:58.537Z,23.50
2023-10-06T15:59:31.284Z,23.50
2023-10-06T16:02:00.667Z,23.30
2023-10-06T16:04:29.060Z,23.50
2023-10-06T16:06:59.854Z,23.20
2023-10-06T16:09:28.321Z,22.90
2023-10-06T16:11:58.604Z,22.90
2023-10-06T16:14:29.655Z,22.80
2023-10-06T16:16:58.540Z,22.60
2023-10-06T16:19:26.771Z,22.60
2023-10-06T16:21:56.404Z,22.40
2023-10-06T16:24:24.638Z,22.20
2023-10-06T16:26:52.832Z,22.20
2023-10-06T16:29:22.605Z,22.10
2023-10-06T16:31:52.236Z,22.10
2023-10-06T16:34:20.780Z,21.90
2023-10-06T16:36:48.893Z,21.80
2023-10-06T16:39:22.896Z,21.80
2023-10-06T16:41:51.770Z,21.70
2023-10-06T16:44:21.984Z,21.50
2023-10-06T16:46:51.583Z,21.50
2023-10-06T16:49:19.724Z,21.40
2023-10-06T16:51:48.086Z,21.30
2023-10-06T16:54:16.531Z,21.00
2023-10-06T16:56:45.044Z,21.00
2023-10-06T16:59:14.985Z,20.90
2023-10-06T17:01:44.411Z,20.70
2023-10-06T17:04:16.681Z,20.80
2023-10-06T17:06:46.850Z,20.70
2023-10-06T17:09:19.689Z,20.60
2023-10-06T17:11:49.288Z,20.40
2023-10-06T17:14:17.592Z,20.50
2023-10-06T17:16:46.299Z,20.50
2023-10-06T17:19:17.448Z,20.30
2023-10-06T17:21:45.802Z,20.30
2023-10-06T17:24:14.412Z,20.30
2023-10-06T17:26:43.694Z,20.20
2023-10-06T17:29:13.174Z,20.20
2023-10-06T17:31:41.656Z,20.10
2023-10-06T17:34:09.804Z,20.20
2023-10-06T17:36:40.562Z,20.10
2023-10-06T17:39:09.018Z,20.10
2023-10-06T17:41:37.451Z,20.10
2023-10-06T17:44:06.696Z,20.00
2023-10-06T17:46:34.823Z,19.90
2023-10-06T17:49:02.977Z,19.90
2023-10-06T17:51:31.211Z,19.70
2023-10-06T17:54:01.276Z,19.60
2023-10-06T17:56:29.857Z,19.50
2023-10-06T17:58:58.051Z,19.50
2023-10-06T18:01:26.380Z,19.60
2023-10-06T18:03:54.774Z,19.50
2023-10-06T18:06:22.999Z,19.40
2023-10-06T18:08:51.178Z,19.30
2023-10-06T18:11:20.686Z,19.30
2023-10-06T18:13:48.832Z,19.30
2023-10-06T18:16:17.145Z,19.20
2023-10-06T18:18:46.255Z,19.10
2023-10-06T18:21:14.899Z,19.00
2023-10-06T18:23:43.306Z,18.90
2023-10-06T18:26:15.390Z,18.70
2023-10-06T18:28:44.922Z,18.60
2023-10-06T18:31:14.765Z,18.60
2023-10-06T18:33:43.172Z,18.60
2023-10-06T18:36:12.312Z,18.40
2023-10-06T18:38:41.078Z,18.40
2023-10-06T18:41:13.726Z,18.30
2023-10-06T18:43:42.833Z,18.30
2023-10-06T18:46:12.541Z,18.30
2023-10-06T18:48:41.506Z,18.20
2023-10-06T18:51:11.422Z,18.20
2023-10-06T18:53:39.843Z,18.10
2023-10-06T18:56:08.426Z,18.10
2023-10-06T18:58:37.643Z,18.00
2023-10-06T19:01:06.170Z,18.00
2023-10-06T19:03:37.681Z,17.90
2023-10-06T19:06:08.042Z,17.90
2023-10-06T19:08:37.698Z,18.00
2023-10-06T19:11:10.978Z,17.90
2023-10-06T19:13:39.528Z,17.90
2023-10-06T19:16:11.294Z,17.80
2023-10-06T19:18:43.694Z,17.70
2023-10-06T19:21:13.194Z,17.70
2023-10-06T19:23:41.434Z,17.50
2023-10-06T19:26:12.426Z,17.50
2023-10-06T19:28:41.858Z,17.40
2023-10-06T19:31:10.980Z,17.30
2023-10-06T19:33:45.318Z,17.30
2023-10-06T19:36:14.256Z,17.30
2023-10-06T19:38:42.541Z,17.20
2023-10-06T19:41:13.339Z,17.10
2023-10-06T19:43:42.861Z,17.00
2023-10-06T19:46:12.065Z,17.00
2023-10-06T19:48:43.861Z,17.10
2023-10-06T19:51:13.644Z,16.90
2023-10-06T19:53:41.790Z,16.90
2023-10-06T19:56:09.897Z,16.90
2023-10-06T19:58:38.049Z,16.80
2023-10-06T20:01:08.544Z,16.80
2023-10-06T20:03:38.745Z,16.80
2023-10-06T20:06:08.925Z,16.70
2023-10-06T20:08:37.436Z,16.70
2023-10-06T20:11:05.673Z,16.70
2023-10-06T20:13:34.594Z,16.70
2023-10-06T20:16:11.632Z,16.70
2023-10-06T20:18:40.971Z,16.70
2023-10-06T20:21:12.787Z,16.70
2023-10-06T20:23:41.353Z,16.70
2023-10-06T20:26:09.604Z,16.60
2023-10-06T20:28:37.768Z,16.60
2023-10-06T20:31:06.063Z,16.50
2023-10-06T20:33:34.170Z,16.50
2023-10-06T20:36:02.554Z,16.40
2023-10-06T20:38:32.696Z,16.40
2023-10-06T20:41:00.989Z,16.50
2023-10-06T20:43:29.335Z,16.40
2023-10-06T20:45:59.451Z,16.40
2023-10-06T20:48:27.684Z,16.30
2023-10-06T20:50:55.927Z,16.30
2023-10-06T20:53:24.450Z,16.30
2023-10-06T20:56:02.289Z,16.30
2023-10-06T20:58:31.008Z,16.20
2023-10-06T21:01:06.704Z,16.30
2023-10-06T21:03:36.004Z,16.20
2023-10-06T21:06:04.576Z,16.20
2023-10-06T21:08:32.721Z,16.10
2023-10-06T21:11:03.074Z,16.10
2023-10-06T21:13:31.264Z,16.00
2023-10-06T21:15:59.488Z,16.00
2023-10-06T21:18:28.152Z,15.90
2023-10-06T21:20:56.785Z,15.90
2023-10-06T21:23:26.652Z,15.90
2023-10-06T21:25:54.884Z,15.90
2023-10-06T21:28:24.566Z,16.00
2023-10-06T21:30:52.846Z,15.90
2023-10-06T21:33:21.035Z,15.90
2023-10-06T21:35:49.287Z,15.90
2023-10-06T21:38:17.443Z,15.80
2023-10-06T21:40:45.655Z,15.80
2023-10-06T21:43:13.786Z,15.80
2023-10-06T21:45:43.324Z,15.70
2023-10-06T21:48:11.503Z,15.80
2023-10-06T21:50:40.577Z,15.70
2023-10-06T21:53:08.673Z,15.70
2023-10-06T21:55:37.503Z,15.70
2023-10-06T21:58:07.978Z,15.70
2023-10-06T22:00:43.653Z,15.70
2023-10-06T22:03:13.735Z,15.80
2023-10-06T22:05:42.234Z,15.80
2023-10-06T22:08:10.856Z,15.70
2023-10-06T22:10:39.084Z,15.70
2023-10-06T22:13:08.254Z,15.70
2023-10-06T22:15:37.201Z,15.60
2023-10-06T22:18:06.855Z,15.60
2023-10-06T22:20:36.370Z,15.60
2023-10-06T22:23:05.181Z,15.60
2023-10-06T22:25:35.768Z,15.70
2023-10-06T22:28:04.136Z,15.60
2023-10-06T22:30:34.077Z,15.60
2023-10-06T22:33:02.279Z,15.70
2023-10-06T22:35:31.008Z,15.60
2023-10-06T22:38:00.664Z,15.70
2023-10-06T22:40:29.108Z,15.60
2023-10-06T22:42:57.819Z,15.70
2023-10-06T22:45:26.070Z,15.70
2023-10-06T22:47:54.243Z,15.70
2023-10-06T22:50:23.337Z,15.70
2023-10-06T22:52:52.533Z,15.70
2023-10-06T22:55:22.060Z,15.70
2023-10-06T22:57:51.413Z,15.70
2023-10-06T23:00:19.634Z,15.60
2023-10-06T23:02:49.180Z,15.70
2023-10-06T23:05:17.600Z,15.70
2023-10-06T23:07:48.102Z,15.60
2023-10-06T23:10:17.476Z,15.70
2023-10-06T23:12:50.550Z,15.70
2023-10-06T23:15:19.062Z,15.60
2023-10-06T23:17:47.438Z,15.60
2023-10-06T23:20:25.352Z,15.60
2023-10-06T23:22:59.344Z,15.60
2023-10-06T23:25:37.047Z,15.60
2023-10-06T23:28:08.421Z,15.70
2023-10-06T23:30:36.388Z,15.60
2023-10-06T23:33:05.581Z,15.70
2023-10-06T23:35:33.961Z,15.70
2023-10-06T23:38:07.436Z,15.70
2023-10-06T23:40:39.603Z,15.80
2023-10-06T23:43:09.835Z,15.90
2023-10-06T23:45:39.060Z,15.80
2023-10-06T23:48:12.553Z,15.90
2023-10-06T23:50:52.476Z,15.80
2023-10-06T23:53:28.420Z,15.80
2023-10-06T23:56:01.581Z,15.80
2023-10-06T23:58:34.480Z,15.80
